sensor_id;sensor_type;location;lat;lon;timestamp;P1;durP1;ratioP1;P2;durP2;ratioP2
16173;SDS011;14031;50.158;8.626;2022-07-06T00:02:09;2.42;;;2.22;;
16173;SDS011;14031;50.158;8.626;2022-07-06T00:04:36;4.30;;;2.15;;
16173;SDS011;14031;50.158;8.626;2022-07-06T00:07:04;2.10;;;2.00;;
16173;SDS011;14031;50.158;8.626;2022-07-06T00:09:31;2.25;;;2.10;;
16173;SDS011;14031;50.158;8.626;2022-07-06T00:11:58;2.50;;;2.30;;
16173;SDS011;14031;50.158;8.626;2022-07-06T00:14:25;3.20;;;1.98;;
16173;SDS011;14031;50.158;8.626;2022-07-06T00:16:52;2.95;;;2.20;;
16173;SDS011;14031;50.158;8.626;2022-07-06T00:19:19;1.98;;;1.85;;
16173;SDS011;14031;50.158;8.626;2022-07-06T00:21:46;2.42;;;2.17;;
16173;SDS011;14031;50.158;8.626;2022-07-06T00:24:14;2.25;;;2.10;;
16173;SDS011;14031;50.158;8.626;2022-07-06T00:26:43;3.00;;;2.20;;
16173;SDS011;14031;50.158;8.626;2022-07-06T00:29:09;2.47;;;2.38;;
16173;SDS011;14031;50.158;8.626;2022-07-06T00:31:36;2.20;;;2.10;;
16173;SDS011;14031;50.158;8.626;2022-07-06T00:34:03;2.63;;;2.20;;
16173;SDS011;14031;50.158;8.626;2022-07-06T00:36:30;2.63;;;1.90;;
16173;SDS011;14031;50.158;8.626;2022-07-06T00:38:57;4.30;;;2.25;;
16173;SDS011;14031;50.158;8.626;2022-07-06T00:41:25;2.17;;;2.08;;
16173;SDS011;14031;50.158;8.626;2022-07-06T00:43:52;4.60;;;2.38;;
16173;SDS011;14031;50.158;8.626;2022-07-06T00:46:22;2.17;;;2.08;;
16173;SDS011;14031;50.158;8.626;2022-07-06T00:48:52;3.13;;;2.13;;
16173;SDS011;14031;50.158;8.626;2022-07-06T00:51:20;3.03;;;2.00;;
16173;SDS011;14031;50.158;8.626;2022-07-06T00:53:51;2.00;;;1.90;;
16173;SDS011;14031;50.158;8.626;2022-07-06T00:56:19;2.30;;;2.10;;
16173;SDS011;14031;50.158;8.626;2022-07-06T00:58:48;1.95;;;1.85;;
16173;SDS011;14031;50.158;8.626;2022-07-06T01:01:15;3.30;;;2.10;;
16173;SDS011;14031;50.158;8.626;2022-07-06T01:03:41;4.50;;;2.38;;
16173;SDS011;14031;50.158;8.626;2022-07-06T01:06:08;2.45;;;2.17;;
16173;SDS011;14031;50.158;8.626;2022-07-06T01:08:36;1.80;;;1.70;;
16173;SDS011;14031;50.158;8.626;2022-07-06T01:11:04;2.20;;;2.00;;
16173;SDS011;14031;50.158;8.626;2022-07-06T01:13:31;8.00;;;2.28;;
16173;SDS011;14031;50.158;8.626;2022-07-06T01:16:00;2.00;;;1.90;;
16173;SDS011;14031;50.158;8.626;2022-07-06T01:18:27;1.90;;;1.80;;
16173;SDS011;14031;50.158;8.626;2022-07-06T01:21:06;2.53;;;2.42;;
16173;SDS011;14031;50.158;8.626;2022-07-06T01:23:40;2.63;;;2.08;;
16173;SDS011;14031;50.158;8.626;2022-07-06T01:26:11;1.92;;;1.80;;
16173;SDS011;14031;50.158;8.626;2022-07-06T01:28:39;3.20;;;1.73;;
16173;SDS011;14031;50.158;8.626;2022-07-06T01:31:13;2.75;;;2.30;;
16173;SDS011;14031;50.158;8.626;2022-07-06T01:33:40;4.13;;;2.10;;
16173;SDS011;14031;50.158;8.626;2022-07-06T01:36:08;1.88;;;1.80;;
16173;SDS011;14031;50.158;8.626;2022-07-06T01:38:42;2.05;;;1.95;;
16173;SDS011;14031;50.158;8.626;2022-07-06T01:41:10;6.13;;;2.30;;
16173;SDS011;14031;50.158;8.626;2022-07-06T01:43:37;3.22;;;2.03;;
16173;SDS011;14031;50.158;8.626;2022-07-06T01:46:04;1.88;;;1.73;;
16173;SDS011;14031;50.158;8.626;2022-07-06T01:48:32;4.38;;;1.85;;
16173;SDS011;14031;50.158;8.626;2022-07-06T01:50:59;3.65;;;2.05;;
16173;SDS011;14031;50.158;8.626;2022-07-06T01:53:27;2.25;;;1.83;;
16173;SDS011;14031;50.158;8.626;2022-07-06T01:55:54;2.92;;;1.95;;
16173;SDS011;14031;50.158;8.626;2022-07-06T01:58:21;2.05;;;1.80;;
16173;SDS011;14031;50.158;8.626;2022-07-06T02:00:48;4.20;;;2.20;;
16173;SDS011;14031;50.158;8.626;2022-07-06T02:03:14;5.28;;;2.40;;
16173;SDS011;14031;50.158;8.626;2022-07-06T02:05:41;6.80;;;2.10;;
16173;SDS011;14031;50.158;8.626;2022-07-06T02:08:08;1.70;;;1.60;;
16173;SDS011;14031;50.158;8.626;2022-07-06T02:10:36;2.13;;;1.92;;
16173;SDS011;14031;50.158;8.626;2022-07-06T02:13:03;4.93;;;2.10;;
16173;SDS011;14031;50.158;8.626;2022-07-06T02:15:30;4.78;;;1.90;;
16173;SDS011;14031;50.158;8.626;2022-07-06T02:17:56;4.15;;;2.30;;
16173;SDS011;14031;50.158;8.626;2022-07-06T02:20:23;2.13;;;2.03;;
16173;SDS011;14031;50.158;8.626;2022-07-06T02:22:50;4.15;;;1.92;;
16173;SDS011;14031;50.158;8.626;2022-07-06T02:25:17;2.05;;;1.95;;
16173;SDS011;14031;50.158;8.626;2022-07-06T02:27:45;2.10;;;2.00;;
16173;SDS011;14031;50.158;8.626;2022-07-06T02:30:12;2.13;;;2.03;;
16173;SDS011;14031;50.158;8.626;2022-07-06T02:32:39;2.97;;;2.00;;
16173;SDS011;14031;50.158;8.626;2022-07-06T02:35:06;2.38;;;1.92;;
16173;SDS011;14031;50.158;8.626;2022-07-06T02:37:33;2.08;;;1.90;;
16173;SDS011;14031;50.158;8.626;2022-07-06T02:39:59;2.95;;;1.95;;
16173;SDS011;14031;50.158;8.626;2022-07-06T02:42:26;1.70;;;1.60;;
16173;SDS011;14031;50.158;8.626;2022-07-06T02:44:55;2.17;;;1.73;;
16173;SDS011;14031;50.158;8.626;2022-07-06T02:47:21;2.60;;;2.40;;
16173;SDS011;14031;50.158;8.626;2022-07-06T02:49:48;3.70;;;1.73;;
16173;SDS011;14031;50.158;8.626;2022-07-06T02:52:15;3.72;;;1.98;;
16173;SDS011;14031;50.158;8.626;2022-07-06T02:54:42;4.00;;;1.80;;
16173;SDS011;14031;50.158;8.626;2022-07-06T02:57:09;2.10;;;2.00;;
16173;SDS011;14031;50.158;8.626;2022-07-06T02:59:36;1.95;;;1.83;;
16173;SDS011;14031;50.158;8.626;2022-07-06T03:02:04;2.00;;;1.90;;
16173;SDS011;14031;50.158;8.626;2022-07-06T03:04:31;4.20;;;1.90;;
16173;SDS011;14031;50.158;8.626;2022-07-06T03:06:59;3.45;;;2.25;;
16173;SDS011;14031;50.158;8.626;2022-07-06T03:09:26;1.70;;;1.63;;
16173;SDS011;14031;50.158;8.626;2022-07-06T03:11:53;2.88;;;1.70;;
16173;SDS011;14031;50.158;8.626;2022-07-06T03:14:20;3.15;;;1.75;;
16173;SDS011;14031;50.158;8.626;2022-07-06T03:16:47;1.70;;;1.60;;
16173;SDS011;14031;50.158;8.626;2022-07-06T03:19:15;1.70;;;1.60;;
16173;SDS011;14031;50.158;8.626;2022-07-06T03:21:41;2.03;;;1.70;;
16173;SDS011;14031;50.158;8.626;2022-07-06T03:24:08;7.07;;;1.60;;
16173;SDS011;14031;50.158;8.626;2022-07-06T03:26:35;2.33;;;1.73;;
16173;SDS011;14031;50.158;8.626;2022-07-06T03:29:02;3.25;;;1.65;;
16173;SDS011;14031;50.158;8.626;2022-07-06T03:31:29;5.20;;;2.00;;
16173;SDS011;14031;50.158;8.626;2022-07-06T03:33:56;3.20;;;1.70;;
16173;SDS011;14031;50.158;8.626;2022-07-06T03:36:24;1.70;;;1.60;;
16173;SDS011;14031;50.158;8.626;2022-07-06T03:38:51;1.73;;;1.60;;
16173;SDS011;14031;50.158;8.626;2022-07-06T03:41:18;1.80;;;1.70;;
16173;SDS011;14031;50.158;8.626;2022-07-06T03:43:45;2.53;;;1.63;;
16173;SDS011;14031;50.158;8.626;2022-07-06T03:46:12;1.73;;;1.70;;
16173;SDS011;14031;50.158;8.626;2022-07-06T03:48:39;2.97;;;2.00;;
16173;SDS011;14031;50.158;8.626;2022-07-06T03:51:05;2.87;;;1.80;;
16173;SDS011;14031;50.158;8.626;2022-07-06T03:53:33;2.97;;;1.40;;
16173;SDS011;14031;50.158;8.626;2022-07-06T03:56:00;2.37;;;1.93;;
16173;SDS011;14031;50.158;8.626;2022-07-06T03:58:45;1.53;;;1.50;;
16173;SDS011;14031;50.158;8.626;2022-07-06T04:01:12;1.90;;;1.80;;
16173;SDS011;14031;50.158;8.626;2022-07-06T04:03:38;4.77;;;2.27;;
16173;SDS011;14031;50.158;8.626;2022-07-06T04:06:05;3.53;;;2.23;;
16173;SDS011;14031;50.158;8.626;2022-07-06T04:08:33;2.22;;;2.13;;
16173;SDS011;14031;50.158;8.626;2022-07-06T04:11:00;2.60;;;1.83;;
16173;SDS011;14031;50.158;8.626;2022-07-06T04:13:27;2.30;;;2.10;;
16173;SDS011;14031;50.158;8.626;2022-07-06T04:15:54;2.67;;;2.27;;
16173;SDS011;14031;50.158;8.626;2022-07-06T04:18:21;2.43;;;2.13;;
16173;SDS011;14031;50.158;8.626;2022-07-06T04:20:47;2.53;;;2.00;;
16173;SDS011;14031;50.158;8.626;2022-07-06T04:23:14;2.57;;;1.90;;
16173;SDS011;14031;50.158;8.626;2022-07-06T04:25:42;2.47;;;1.97;;
16173;SDS011;14031;50.158;8.626;2022-07-06T04:28:09;3.00;;;2.00;;
16173;SDS011;14031;50.158;8.626;2022-07-06T04:30:36;2.77;;;2.40;;
16173;SDS011;14031;50.158;8.626;2022-07-06T04:33:03;4.47;;;2.00;;
16173;SDS011;14031;50.158;8.626;2022-07-06T04:35:30;3.23;;;2.23;;
16173;SDS011;14031;50.158;8.626;2022-07-06T04:37:59;4.17;;;2.60;;
16173;SDS011;14031;50.158;8.626;2022-07-06T04:40:28;8.27;;;2.90;;
16173;SDS011;14031;50.158;8.626;2022-07-06T04:42:56;2.23;;;2.10;;
16173;SDS011;14031;50.158;8.626;2022-07-06T04:45:24;3.43;;;3.10;;
16173;SDS011;14031;50.158;8.626;2022-07-06T04:47:51;4.13;;;2.47;;
16173;SDS011;14031;50.158;8.626;2022-07-06T04:50:18;2.33;;;2.20;;
16173;SDS011;14031;50.158;8.626;2022-07-06T04:52:45;4.90;;;2.40;;
16173;SDS011;14031;50.158;8.626;2022-07-06T04:55:11;2.70;;;2.40;;
16173;SDS011;14031;50.158;8.626;2022-07-06T04:57:39;3.90;;;2.37;;
16173;SDS011;14031;50.158;8.626;2022-07-06T05:00:14;3.07;;;2.50;;
16173;SDS011;14031;50.158;8.626;2022-07-06T05:02:41;2.83;;;2.57;;
16173;SDS011;14031;50.158;8.626;2022-07-06T05:05:08;2.70;;;2.47;;
16173;SDS011;14031;50.158;8.626;2022-07-06T05:07:35;2.57;;;2.37;;
16173;SDS011;14031;50.158;8.626;2022-07-06T05:10:05;2.50;;;2.30;;
16173;SDS011;14031;50.158;8.626;2022-07-06T05:12:33;2.33;;;2.23;;
16173;SDS011;14031;50.158;8.626;2022-07-06T05:15:00;4.78;;;2.30;;
16173;SDS011;14031;50.158;8.626;2022-07-06T05:17:28;2.50;;;2.30;;
16173;SDS011;14031;50.158;8.626;2022-07-06T05:19:55;3.83;;;2.33;;
16173;SDS011;14031;50.158;8.626;2022-07-06T05:22:22;2.53;;;2.33;;
16173;SDS011;14031;50.158;8.626;2022-07-06T05:24:49;6.25;;;2.53;;
16173;SDS011;14031;50.158;8.626;2022-07-06T05:27:16;4.23;;;2.67;;
16173;SDS011;14031;50.158;8.626;2022-07-06T05:29:43;5.70;;;2.23;;
16173;SDS011;14031;50.158;8.626;2022-07-06T05:32:10;2.70;;;2.20;;
16173;SDS011;14031;50.158;8.626;2022-07-06T05:34:38;2.47;;;2.20;;
16173;SDS011;14031;50.158;8.626;2022-07-06T05:37:05;5.13;;;2.58;;
16173;SDS011;14031;50.158;8.626;2022-07-06T05:39:32;2.78;;;2.03;;
16173;SDS011;14031;50.158;8.626;2022-07-06T05:41:58;2.38;;;2.17;;
16173;SDS011;14031;50.158;8.626;2022-07-06T05:44:25;3.45;;;2.00;;
16173;SDS011;14031;50.158;8.626;2022-07-06T05:46:52;2.55;;;2.35;;
16173;SDS011;14031;50.158;8.626;2022-07-06T05:49:41;3.33;;;2.85;;
16173;SDS011;14031;50.158;8.626;2022-07-06T05:52:26;3.45;;;2.30;;
16173;SDS011;14031;50.158;8.626;2022-07-06T05:54:53;3.88;;;2.10;;
16173;SDS011;14031;50.158;8.626;2022-07-06T05:57:19;2.45;;;2.20;;
16173;SDS011;14031;50.158;8.626;2022-07-06T05:59:46;4.40;;;2.50;;
16173;SDS011;14031;50.158;8.626;2022-07-06T06:02:13;2.67;;;2.42;;
16173;SDS011;14031;50.158;8.626;2022-07-06T06:04:41;5.35;;;2.50;;
16173;SDS011;14031;50.158;8.626;2022-07-06T06:07:08;3.42;;;2.35;;
16173;SDS011;14031;50.158;8.626;2022-07-06T06:09:35;2.75;;;2.63;;
16173;SDS011;14031;50.158;8.626;2022-07-06T06:12:02;4.68;;;2.40;;
16173;SDS011;14031;50.158;8.626;2022-07-06T06:14:29;4.57;;;2.33;;
16173;SDS011;14031;50.158;8.626;2022-07-06T06:16:56;6.47;;;2.85;;
16173;SDS011;14031;50.158;8.626;2022-07-06T06:19:23;4.32;;;2.78;;
16173;SDS011;14031;50.158;8.626;2022-07-06T06:21:51;2.55;;;2.30;;
16173;SDS011;14031;50.158;8.626;2022-07-06T06:24:18;4.40;;;2.80;;
16173;SDS011;14031;50.158;8.626;2022-07-06T06:26:45;2.97;;;2.60;;
16173;SDS011;14031;50.158;8.626;2022-07-06T06:29:12;3.42;;;2.72;;
16173;SDS011;14031;50.158;8.626;2022-07-06T06:31:39;4.05;;;2.70;;
16173;SDS011;14031;50.158;8.626;2022-07-06T06:34:05;2.70;;;2.50;;
16173;SDS011;14031;50.158;8.626;2022-07-06T06:36:32;2.53;;;2.33;;
16173;SDS011;14031;50.158;8.626;2022-07-06T06:39:00;2.60;;;2.40;;
16173;SDS011;14031;50.158;8.626;2022-07-06T06:41:27;3.28;;;2.63;;
16173;SDS011;14031;50.158;8.626;2022-07-06T06:43:54;2.47;;;2.30;;
16173;SDS011;14031;50.158;8.626;2022-07-06T06:46:21;2.60;;;2.50;;
16173;SDS011;14031;50.158;8.626;2022-07-06T06:48:48;2.88;;;2.10;;
16173;SDS011;14031;50.158;8.626;2022-07-06T06:51:15;5.57;;;2.38;;
16173;SDS011;14031;50.158;8.626;2022-07-06T06:53:41;3.92;;;2.22;;
16173;SDS011;14031;50.158;8.626;2022-07-06T06:56:10;4.53;;;3.10;;
16173;SDS011;14031;50.158;8.626;2022-07-06T06:58:36;4.70;;;2.33;;
16173;SDS011;14031;50.158;8.626;2022-07-06T07:01:03;2.75;;;2.42;;
16173;SDS011;14031;50.158;8.626;2022-07-06T07:03:30;5.43;;;2.20;;
16173;SDS011;14031;50.158;8.626;2022-07-06T07:05:57;4.78;;;2.70;;
16173;SDS011;14031;50.158;8.626;2022-07-06T07:08:24;2.53;;;2.30;;
16173;SDS011;14031;50.158;8.626;2022-07-06T07:10:51;2.50;;;2.30;;
16173;SDS011;14031;50.158;8.626;2022-07-06T07:13:19;2.70;;;2.03;;
16173;SDS011;14031;50.158;8.626;2022-07-06T07:15:46;3.10;;;2.13;;
16173;SDS011;14031;50.158;8.626;2022-07-06T07:18:13;3.70;;;2.20;;
16173;SDS011;14031;50.158;8.626;2022-07-06T07:20:40;2.65;;;2.10;;
16173;SDS011;14031;50.158;8.626;2022-07-06T07:23:06;6.82;;;2.10;;
16173;SDS011;14031;50.158;8.626;2022-07-06T07:25:33;2.00;;;1.90;;
16173;SDS011;14031;50.158;8.626;2022-07-06T07:28:00;2.50;;;1.73;;
16173;SDS011;14031;50.158;8.626;2022-07-06T07:30:28;2.35;;;2.03;;
16173;SDS011;14031;50.158;8.626;2022-07-06T07:32:55;1.92;;;1.73;;
16173;SDS011;14031;50.158;8.626;2022-07-06T07:35:22;2.22;;;2.03;;
16173;SDS011;14031;50.158;8.626;2022-07-06T07:37:49;2.33;;;2.08;;
16173;SDS011;14031;50.158;8.626;2022-07-06T07:40:16;2.17;;;2.00;;
16173;SDS011;14031;50.158;8.626;2022-07-06T07:42:43;2.40;;;2.20;;
16173;SDS011;14031;50.158;8.626;2022-07-06T07:45:10;3.10;;;2.50;;
16173;SDS011;14031;50.158;8.626;2022-07-06T07:47:38;4.25;;;2.05;;
16173;SDS011;14031;50.158;8.626;2022-07-06T07:50:06;2.75;;;2.20;;
16173;SDS011;14031;50.158;8.626;2022-07-06T07:52:33;2.28;;;2.08;;
16173;SDS011;14031;50.158;8.626;2022-07-06T07:55:00;2.90;;;2.28;;
16173;SDS011;14031;50.158;8.626;2022-07-06T07:57:27;4.47;;;2.22;;
16173;SDS011;14031;50.158;8.626;2022-07-06T07:59:54;2.92;;;2.28;;
16173;SDS011;14031;50.158;8.626;2022-07-06T08:02:21;3.83;;;2.45;;
16173;SDS011;14031;50.158;8.626;2022-07-06T08:04:49;2.58;;;2.38;;
16173;SDS011;14031;50.158;8.626;2022-07-06T08:07:16;2.65;;;2.53;;
16173;SDS011;14031;50.158;8.626;2022-07-06T08:09:43;2.20;;;2.10;;
16173;SDS011;14031;50.158;8.626;2022-07-06T08:12:10;5.95;;;2.30;;
16173;SDS011;14031;50.158;8.626;2022-07-06T08:14:37;3.40;;;2.42;;
16173;SDS011;14031;50.158;8.626;2022-07-06T08:17:03;2.53;;;2.42;;
16173;SDS011;14031;50.158;8.626;2022-07-06T08:19:30;2.63;;;2.42;;
16173;SDS011;14031;50.158;8.626;2022-07-06T08:21:59;4.03;;;2.88;;
16173;SDS011;14031;50.158;8.626;2022-07-06T08:24:25;3.05;;;2.75;;
16173;SDS011;14031;50.158;8.626;2022-07-06T08:26:52;2.72;;;2.47;;
16173;SDS011;14031;50.158;8.626;2022-07-06T08:29:20;3.85;;;2.85;;
16173;SDS011;14031;50.158;8.626;2022-07-06T08:31:46;6.10;;;2.63;;
16173;SDS011;14031;50.158;8.626;2022-07-06T08:34:13;2.47;;;2.35;;
16173;SDS011;14031;50.158;8.626;2022-07-06T08:36:40;3.88;;;2.88;;
16173;SDS011;14031;50.158;8.626;2022-07-06T08:39:08;6.75;;;2.45;;
16173;SDS011;14031;50.158;8.626;2022-07-06T08:41:36;3.85;;;2.60;;
16173;SDS011;14031;50.158;8.626;2022-07-06T08:44:07;2.75;;;2.55;;
16173;SDS011;14031;50.158;8.626;2022-07-06T08:46:35;2.83;;;2.50;;
16173;SDS011;14031;50.158;8.626;2022-07-06T08:49:04;2.88;;;2.67;;
16173;SDS011;14031;50.158;8.626;2022-07-06T08:51:33;4.13;;;2.75;;
16173;SDS011;14031;50.158;8.626;2022-07-06T08:54:01;2.85;;;2.65;;
16173;SDS011;14031;50.158;8.626;2022-07-06T08:56:30;3.22;;;2.28;;
16173;SDS011;14031;50.158;8.626;2022-07-06T08:58:58;2.33;;;2.22;;
16173;SDS011;14031;50.158;8.626;2022-07-06T09:01:25;2.50;;;2.33;;
16173;SDS011;14031;50.158;8.626;2022-07-06T09:03:54;2.78;;;2.40;;
16173;SDS011;14031;50.158;8.626;2022-07-06T09:06:23;2.92;;;2.58;;
16173;SDS011;14031;50.158;8.626;2022-07-06T09:08:51;2.70;;;2.50;;
16173;SDS011;14031;50.158;8.626;2022-07-06T09:11:20;2.53;;;2.33;;
16173;SDS011;14031;50.158;8.626;2022-07-06T09:13:48;6.35;;;2.65;;
16173;SDS011;14031;50.158;8.626;2022-07-06T09:16:16;2.53;;;2.33;;
16173;SDS011;14031;50.158;8.626;2022-07-06T09:18:43;2.55;;;2.45;;
16173;SDS011;14031;50.158;8.626;2022-07-06T09:21:11;2.40;;;2.30;;
16173;SDS011;14031;50.158;8.626;2022-07-06T09:23:49;6.35;;;2.83;;
16173;SDS011;14031;50.158;8.626;2022-07-06T09:26:20;2.50;;;2.30;;
16173;SDS011;14031;50.158;8.626;2022-07-06T09:28:49;2.33;;;2.22;;
16173;SDS011;14031;50.158;8.626;2022-07-06T09:31:16;4.80;;;2.92;;
16173;SDS011;14031;50.158;8.626;2022-07-06T09:33:53;3.95;;;2.80;;
16173;SDS011;14031;50.158;8.626;2022-07-06T09:36:35;3.47;;;2.80;;
16173;SDS011;14031;50.158;8.626;2022-07-06T09:39:14;3.63;;;2.40;;
16173;SDS011;14031;50.158;8.626;2022-07-06T09:41:42;2.80;;;2.60;;
16173;SDS011;14031;50.158;8.626;2022-07-06T09:44:10;2.92;;;2.38;;
16173;SDS011;14031;50.158;8.626;2022-07-06T09:46:37;3.85;;;2.38;;
16173;SDS011;14031;50.158;8.626;2022-07-06T09:49:06;3.45;;;2.90;;
16173;SDS011;14031;50.158;8.626;2022-07-06T09:51:35;3.10;;;2.85;;
16173;SDS011;14031;50.158;8.626;2022-07-06T09:54:03;3.28;;;2.47;;
16173;SDS011;14031;50.158;8.626;2022-07-06T09:56:35;2.97;;;2.65;;
16173;SDS011;14031;50.158;8.626;2022-07-06T09:59:05;2.65;;;2.45;;
16173;SDS011;14031;50.158;8.626;2022-07-06T10:01:35;6.65;;;2.55;;
16173;SDS011;14031;50.158;8.626;2022-07-06T10:04:03;2.75;;;2.55;;
16173;SDS011;14031;50.158;8.626;2022-07-06T10:06:31;2.55;;;2.40;;
16173;SDS011;14031;50.158;8.626;2022-07-06T10:08:58;3.97;;;2.40;;
16173;SDS011;14031;50.158;8.626;2022-07-06T10:11:25;2.53;;;2.30;;
16173;SDS011;14031;50.158;8.626;2022-07-06T10:13:54;2.50;;;2.00;;
16173;SDS011;14031;50.158;8.626;2022-07-06T10:16:22;3.38;;;2.35;;
16173;SDS011;14031;50.158;8.626;2022-07-06T10:18:51;2.97;;;2.15;;
16173;SDS011;14031;50.158;8.626;2022-07-06T10:21:20;2.15;;;2.05;;
16173;SDS011;14031;50.158;8.626;2022-07-06T10:23:48;3.58;;;2.20;;
16173;SDS011;14031;50.158;8.626;2022-07-06T10:26:16;2.33;;;2.05;;
16173;SDS011;14031;50.158;8.626;2022-07-06T10:28:43;2.63;;;2.15;;
16173;SDS011;14031;50.158;8.626;2022-07-06T10:31:12;3.45;;;2.50;;
16173;SDS011;14031;50.158;8.626;2022-07-06T10:33:40;2.20;;;2.10;;
16173;SDS011;14031;50.158;8.626;2022-07-06T10:36:09;2.55;;;2.00;;
16173;SDS011;14031;50.158;8.626;2022-07-06T10:38:37;2.10;;;2.00;;
16173;SDS011;14031;50.158;8.626;2022-07-06T10:41:04;2.08;;;1.98;;
16173;SDS011;14031;50.158;8.626;2022-07-06T10:43:35;2.25;;;2.15;;
16173;SDS011;14031;50.158;8.626;2022-07-06T10:46:05;2.03;;;1.95;;
16173;SDS011;14031;50.158;8.626;2022-07-06T10:48:37;1.95;;;1.85;;
16173;SDS011;14031;50.158;8.626;2022-07-06T10:51:04;4.90;;;2.08;;
16173;SDS011;14031;50.158;8.626;2022-07-06T10:53:33;2.50;;;2.00;;
16173;SDS011;14031;50.158;8.626;2022-07-06T10:56:02;6.78;;;2.38;;
16173;SDS011;14031;50.158;8.626;2022-07-06T10:58:37;5.10;;;2.00;;
16173;SDS011;14031;50.158;8.626;2022-07-06T11:01:12;4.13;;;2.00;;
16173;SDS011;14031;50.158;8.626;2022-07-06T11:03:40;2.05;;;1.88;;
16173;SDS011;14031;50.158;8.626;2022-07-06T11:06:09;2.30;;;2.20;;
16173;SDS011;14031;50.158;8.626;2022-07-06T11:11:23;2.20;;;1.98;;
16173;SDS011;14031;50.158;8.626;2022-07-06T11:14:00;3.75;;;1.67;;
16173;SDS011;14031;50.158;8.626;2022-07-06T11:16:30;1.67;;;1.58;;
16173;SDS011;14031;50.158;8.626;2022-07-06T11:19:02;2.10;;;1.88;;
16173;SDS011;14031;50.158;8.626;2022-07-06T11:21:43;2.38;;;1.52;;
16173;SDS011;14031;50.158;8.626;2022-07-06T11:24:13;2.80;;;1.40;;
16173;SDS011;14031;50.158;8.626;2022-07-06T11:26:42;1.60;;;1.50;;
16173;SDS011;14031;50.158;8.626;2022-07-06T11:29:11;2.55;;;1.50;;
16173;SDS011;14031;50.158;8.626;2022-07-06T11:31:39;1.38;;;1.33;;
16173;SDS011;14031;50.158;8.626;2022-07-06T11:34:08;1.30;;;1.20;;
16173;SDS011;14031;50.158;8.626;2022-07-06T11:36:37;3.22;;;1.30;;
16173;SDS011;14031;50.158;8.626;2022-07-06T11:39:04;4.68;;;1.50;;
16173;SDS011;14031;50.158;8.626;2022-07-06T11:41:33;1.20;;;1.20;;
16173;SDS011;14031;50.158;8.626;2022-07-06T11:44:01;1.33;;;1.23;;
16173;SDS011;14031;50.158;8.626;2022-07-06T11:46:29;5.25;;;1.85;;
16173;SDS011;14031;50.158;8.626;2022-07-06T11:48:57;1.40;;;1.30;;
16173;SDS011;14031;50.158;8.626;2022-07-06T11:51:25;2.03;;;1.70;;
16173;SDS011;14031;50.158;8.626;2022-07-06T11:53:55;3.88;;;1.30;;
16173;SDS011;14031;50.158;8.626;2022-07-06T11:56:24;1.48;;;1.30;;
16173;SDS011;14031;50.158;8.626;2022-07-06T11:58:54;1.17;;;1.17;;
16173;SDS011;14031;50.158;8.626;2022-07-06T12:01:22;6.32;;;1.70;;
16173;SDS011;14031;50.158;8.626;2022-07-06T12:03:50;1.80;;;1.30;;
16173;SDS011;14031;50.158;8.626;2022-07-06T12:06:18;1.65;;;1.08;;
16173;SDS011;14031;50.158;8.626;2022-07-06T12:08:47;1.58;;;1.42;;
16173;SDS011;14031;50.158;8.626;2022-07-06T12:11:16;3.10;;;1.42;;
16173;SDS011;14031;50.158;8.626;2022-07-06T12:13:48;1.27;;;1.20;;
16173;SDS011;14031;50.158;8.626;2022-07-06T12:16:17;3.65;;;1.27;;
16173;SDS011;14031;50.158;8.626;2022-07-06T12:18:45;1.38;;;1.27;;
16173;SDS011;14031;50.158;8.626;2022-07-06T12:21:14;2.47;;;1.30;;
16173;SDS011;14031;50.158;8.626;2022-07-06T12:23:42;6.30;;;1.30;;
16173;SDS011;14031;50.158;8.626;2022-07-06T12:26:11;0.90;;;0.90;;
16173;SDS011;14031;50.158;8.626;2022-07-06T12:28:38;1.45;;;1.35;;
16173;SDS011;14031;50.158;8.626;2022-07-06T12:31:05;3.28;;;1.10;;
16173;SDS011;14031;50.158;8.626;2022-07-06T12:33:33;1.00;;;1.00;;
16173;SDS011;14031;50.158;8.626;2022-07-06T12:36:13;1.27;;;1.17;;
16173;SDS011;14031;50.158;8.626;2022-07-06T12:38:44;3.53;;;1.17;;
16173;SDS011;14031;50.158;8.626;2022-07-06T12:41:28;1.17;;;1.10;;
16173;SDS011;14031;50.158;8.626;2022-07-06T12:44:01;1.63;;;1.00;;
16173;SDS011;14031;50.158;8.626;2022-07-06T12:46:30;1.40;;;1.30;;
16173;SDS011;14031;50.158;8.626;2022-07-06T12:49:00;2.25;;;1.10;;
16173;SDS011;14031;50.158;8.626;2022-07-06T12:51:29;1.48;;;1.38;;
16173;SDS011;14031;50.158;8.626;2022-07-06T12:54:14;1.08;;;1.08;;
16173;SDS011;14031;50.158;8.626;2022-07-06T12:59:24;1.00;;;1.00;;
16173;SDS011;14031;50.158;8.626;2022-07-06T13:01:51;1.02;;;1.02;;
16173;SDS011;14031;50.158;8.626;2022-07-06T13:04:22;1.40;;;1.13;;
16173;SDS011;14031;50.158;8.626;2022-07-06T13:06:49;1.00;;;1.00;;
16173;SDS011;14031;50.158;8.626;2022-07-06T13:09:17;1.08;;;1.02;;
16173;SDS011;14031;50.158;8.626;2022-07-06T13:11:44;0.90;;;0.90;;
16173;SDS011;14031;50.158;8.626;2022-07-06T13:14:12;1.77;;;1.17;;
16173;SDS011;14031;50.158;8.626;2022-07-06T13:16:39;2.58;;;1.08;;
16173;SDS011;14031;50.158;8.626;2022-07-06T13:19:06;1.00;;;1.00;;
16173;SDS011;14031;50.158;8.626;2022-07-06T13:21:34;1.25;;;1.10;;
16173;SDS011;14031;50.158;8.626;2022-07-06T13:24:01;2.60;;;1.17;;
16173;SDS011;14031;50.158;8.626;2022-07-06T13:26:28;1.73;;;1.25;;
16173;SDS011;14031;50.158;8.626;2022-07-06T13:28:58;1.35;;;0.98;;
16173;SDS011;14031;50.158;8.626;2022-07-06T13:31:25;1.60;;;1.15;;
16173;SDS011;14031;50.158;8.626;2022-07-06T13:33:52;1.52;;;1.42;;
16173;SDS011;14031;50.158;8.626;2022-07-06T13:36:19;0.93;;;0.90;;
16173;SDS011;14031;50.158;8.626;2022-07-06T13:38:48;1.33;;;1.17;;
16173;SDS011;14031;50.158;8.626;2022-07-06T13:41:14;1.60;;;1.30;;
16173;SDS011;14031;50.158;8.626;2022-07-06T13:43:41;1.50;;;1.40;;
16173;SDS011;14031;50.158;8.626;2022-07-06T13:46:08;3.20;;;1.35;;
16173;SDS011;14031;50.158;8.626;2022-07-06T13:48:36;1.17;;;1.17;;
16173;SDS011;14031;50.158;8.626;2022-07-06T13:51:03;1.05;;;1.05;;
16173;SDS011;14031;50.158;8.626;2022-07-06T13:53:30;1.88;;;1.25;;
16173;SDS011;14031;50.158;8.626;2022-07-06T13:55:58;1.77;;;0.82;;
16173;SDS011;14031;50.158;8.626;2022-07-06T13:58:26;2.22;;;1.00;;
16173;SDS011;14031;50.158;8.626;2022-07-06T14:00:53;1.02;;;1.00;;
16173;SDS011;14031;50.158;8.626;2022-07-06T14:03:20;1.20;;;0.95;;
16173;SDS011;14031;50.158;8.626;2022-07-06T14:05:52;2.38;;;1.10;;
16173;SDS011;14031;50.158;8.626;2022-07-06T14:08:19;1.98;;;1.40;;
16173;SDS011;14031;50.158;8.626;2022-07-06T14:10:46;3.38;;;1.08;;
16173;SDS011;14031;50.158;8.626;2022-07-06T14:13:14;1.45;;;1.08;;
16173;SDS011;14031;50.158;8.626;2022-07-06T14:15:41;4.38;;;1.35;;
16173;SDS011;14031;50.158;8.626;2022-07-06T14:18:08;1.30;;;1.20;;
16173;SDS011;14031;50.158;8.626;2022-07-06T14:20:35;1.38;;;1.27;;
16173;SDS011;14031;50.158;8.626;2022-07-06T14:23:02;1.50;;;1.40;;
16173;SDS011;14031;50.158;8.626;2022-07-06T14:25:30;1.30;;;1.15;;
16173;SDS011;14031;50.158;8.626;2022-07-06T14:27:57;1.70;;;1.40;;
16173;SDS011;14031;50.158;8.626;2022-07-06T14:30:25;2.08;;;1.20;;
16173;SDS011;14031;50.158;8.626;2022-07-06T14:32:52;1.40;;;1.30;;
16173;SDS011;14031;50.158;8.626;2022-07-06T14:35:19;3.22;;;1.25;;
16173;SDS011;14031;50.158;8.626;2022-07-06T14:37:47;1.25;;;1.17;;
16173;SDS011;14031;50.158;8.626;2022-07-06T14:40:14;1.15;;;1.10;;
16173;SDS011;14031;50.158;8.626;2022-07-06T14:42:41;2.15;;;1.20;;
16173;SDS011;14031;50.158;8.626;2022-07-06T14:45:08;1.85;;;1.30;;
16173;SDS011;14031;50.158;8.626;2022-07-06T14:47:36;1.23;;;1.17;;
16173;SDS011;14031;50.158;8.626;2022-07-06T14:50:03;1.52;;;1.20;;
16173;SDS011;14031;50.158;8.626;2022-07-06T14:52:31;2.92;;;1.38;;
16173;SDS011;14031;50.158;8.626;2022-07-06T14:54:57;1.70;;;1.60;;
16173;SDS011;14031;50.158;8.626;2022-07-06T14:57:26;4.03;;;1.48;;
16173;SDS011;14031;50.158;8.626;2022-07-06T14:59:52;1.42;;;1.33;;